sensor_id;sensor_type;location;lat;lon;timestamp;pressure;altitude;pressure_sealevel;temperature;humidity
6395;BME280;3230;42.588;23.358;2023-08-20T00:00:13;91449.97;;;20.16;nan
6395;BME280;3230;42.588;23.358;2023-08-20T00:02:42;91449.13;;;20.24;nan
6395;BME280;3230;42.588;23.358;2023-08-20T00:05:08;91461.53;;;20.20;nan
6395;BME280;3230;42.588;23.358;2023-08-20T00:07:34;91453.53;;;20.20;nan
6395;BME280;3230;42.588;23.358;2023-08-20T00:09:59;91452.94;;;20.14;nan
6395;BME280;3230;42.588;23.358;2023-08-20T00:12:25;91458.53;;;20.21;nan
6395;BME280;3230;42.588;23.358;2023-08-20T00:14:58;91454.84;;;20.13;nan
6395;BME280;3230;42.588;23.358;2023-08-20T00:17:31;91458.22;;;20.23;nan
6395;BME280;3230;42.588;23.358;2023-08-20T00:19:57;91452.31;;;20.17;nan
6395;BME280;3230;42.588;23.358;2023-08-20T00:22:23;91457.53;;;20.05;nan
6395;BME280;3230;42.588;23.358;2023-08-20T00:24:57;91447.22;;;20.03;nan
6395;BME280;3230;42.588;23.358;2023-08-20T00:27:22;91458.31;;;20.05;nan
6395;BME280;3230;42.588;23.358;2023-08-20T00:29:47;91453.19;;;20.00;nan
6395;BME280;3230;42.588;23.358;2023-08-20T00:32:14;91452.00;;;19.89;nan
6395;BME280;3230;42.588;23.358;2023-08-20T00:34:40;91445.84;;;19.97;nan
6395;BME280;3230;42.588;23.358;2023-08-20T00:37:05;91449.34;;;19.89;nan
6395;BME280;3230;42.588;23.358;2023-08-20T00:39:31;91449.59;;;19.96;nan
6395;BME280;3230;42.588;23.358;2023-08-20T00:41:57;91454.59;;;19.97;nan
6395;BME280;3230;42.588;23.358;2023-08-20T00:44:22;91445.13;;;19.88;nan
6395;BME280;3230;42.588;23.358;2023-08-20T00:46:50;91449.78;;;19.91;nan
6395;BME280;3230;42.588;23.358;2023-08-20T00:49:16;91447.91;;;19.82;nan
6395;BME280;3230;42.588;23.358;2023-08-20T00:51:42;91439.00;;;19.87;nan
6395;BME280;3230;42.588;23.358;2023-08-20T00:54:08;91444.97;;;19.84;nan
6395;BME280;3230;42.588;23.358;2023-08-20T00:56:33;91440.59;;;19.79;nan
6395;BME280;3230;42.588;23.358;2023-08-20T00:58:59;91445.47;;;19.69;nan
6395;BME280;3230;42.588;23.358;2023-08-20T01:01:24;91450.41;;;19.40;nan
6395;BME280;3230;42.588;23.358;2023-08-20T01:03:50;91444.44;;;19.52;nan
6395;BME280;3230;42.588;23.358;2023-08-20T01:06:23;91445.25;;;19.44;nan
6395;BME280;3230;42.588;23.358;2023-08-20T01:09:05;91443.06;;;19.37;nan
6395;BME280;3230;42.588;23.358;2023-08-20T01:11:39;91445.91;;;19.32;nan
6395;BME280;3230;42.588;23.358;2023-08-20T01:14:14;91441.06;;;19.34;nan
6395;BME280;3230;42.588;23.358;2023-08-20T01:16:41;91440.44;;;19.28;nan
6395;BME280;3230;42.588;23.358;2023-08-20T01:19:10;91441.72;;;19.05;nan
6395;BME280;3230;42.588;23.358;2023-08-20T01:29:55;91428.94;;;18.80;nan
6395;BME280;3230;42.588;23.358;2023-08-20T01:32:22;91437.53;;;18.68;nan
6395;BME280;3230;42.588;23.358;2023-08-20T01:34:49;91434.88;;;18.68;nan
6395;BME280;3230;42.588;23.358;2023-08-20T01:37:15;91433.78;;;18.61;nan
6395;BME280;3230;42.588;23.358;2023-08-20T01:39:40;91433.94;;;18.64;nan
6395;BME280;3230;42.588;23.358;2023-08-20T01:42:05;91423.16;;;18.52;nan
6395;BME280;3230;42.588;23.358;2023-08-20T01:44:31;91416.94;;;18.48;nan
6395;BME280;3230;42.588;23.358;2023-08-20T01:46:56;91414.44;;;18.51;nan
6395;BME280;3230;42.588;23.358;2023-08-20T01:49:23;91410.53;;;18.58;nan
6395;BME280;3230;42.588;23.358;2023-08-20T01:51:48;91411.91;;;18.37;nan
6395;BME280;3230;42.588;23.358;2023-08-20T01:54:13;91409.91;;;18.52;nan
6395;BME280;3230;42.588;23.358;2023-08-20T01:56:39;91409.13;;;18.51;nan
6395;BME280;3230;42.588;23.358;2023-08-20T01:59:04;91413.66;;;18.60;nan
6395;BME280;3230;42.588;23.358;2023-08-20T02:01:29;91415.69;;;18.63;nan
6395;BME280;3230;42.588;23.358;2023-08-20T02:03:55;91412.25;;;18.62;nan
6395;BME280;3230;42.588;23.358;2023-08-20T02:06:20;91402.56;;;18.58;nan
6395;BME280;3230;42.588;23.358;2023-08-20T02:08:46;91399.28;;;18.61;nan
6395;BME280;3230;42.588;23.358;2023-08-20T02:11:12;91392.25;;;18.47;nan
6395;BME280;3230;42.588;23.358;2023-08-20T02:13:37;91390.56;;;18.43;nan
6395;BME280;3230;42.588;23.358;2023-08-20T02:16:04;91388.19;;;18.41;nan
6395;BME280;3230;42.588;23.358;2023-08-20T02:18:30;91377.59;;;18.41;nan
6395;BME280;3230;42.588;23.358;2023-08-20T02:20:55;91383.84;;;18.45;nan
6395;BME280;3230;42.588;23.358;2023-08-20T02:23:21;91383.38;;;18.43;nan
6395;BME280;3230;42.588;23.358;2023-08-20T02:25:47;91389.94;;;18.37;nan
6395;BME280;3230;42.588;23.358;2023-08-20T02:28:12;91389.00;;;18.33;nan
6395;BME280;3230;42.588;23.358;2023-08-20T02:30:42;91383.53;;;18.38;nan
6395;BME280;3230;42.588;23.358;2023-08-20T02:33:08;91386.03;;;18.26;nan
6395;BME280;3230;42.588;23.358;2023-08-20T02:35:33;91382.91;;;18.24;nan
6395;BME280;3230;42.588;23.358;2023-08-20T02:37:58;91378.84;;;18.26;nan
6395;BME280;3230;42.588;23.358;2023-08-20T02:40:24;91379.00;;;18.21;nan
6395;BME280;3230;42.588;23.358;2023-08-20T02:42:49;91379.78;;;18.21;nan
6395;BME280;3230;42.588;23.358;2023-08-20T02:45:15;91383.19;;;18.13;nan
6395;BME280;3230;42.588;23.358;2023-08-20T02:47:40;91376.81;;;18.05;nan
6395;BME280;3230;42.588;23.358;2023-08-20T02:50:06;91388.97;;;18.06;nan
6395;BME280;3230;42.588;23.358;2023-08-20T02:52:31;91388.06;;;18.11;nan
6395;BME280;3230;42.588;23.358;2023-08-20T02:54:57;91393.97;;;18.08;nan
6395;BME280;3230;42.588;23.358;2023-08-20T02:57:22;91392.28;;;18.12;nan
6395;BME280;3230;42.588;23.358;2023-08-20T02:59:47;91395.38;;;18.05;nan
6395;BME280;3230;42.588;23.358;2023-08-20T03:02:13;91394.13;;;18.12;nan
6395;BME280;3230;42.588;23.358;2023-08-20T03:04:38;91399.91;;;18.14;nan
6395;BME280;3230;42.588;23.358;2023-08-20T03:07:03;91390.38;;;18.04;nan
6395;BME280;3230;42.588;23.358;2023-08-20T03:09:29;91398.78;;;18.06;nan
6395;BME280;3230;42.588;23.358;2023-08-20T03:11:55;91398.78;;;18.06;nan
6395;BME280;3230;42.588;23.358;2023-08-20T03:14:20;91399.09;;;18.04;nan
6395;BME280;3230;42.588;23.358;2023-08-20T03:16:46;91397.84;;;18.02;nan
6395;BME280;3230;42.588;23.358;2023-08-20T03:19:11;91389.75;;;17.98;nan
6395;BME280;3230;42.588;23.358;2023-08-20T03:21:43;91395.34;;;17.97;nan
6395;BME280;3230;42.588;23.358;2023-08-20T03:24:09;91402.22;;;17.98;nan
6395;BME280;3230;42.588;23.358;2023-08-20T03:26:34;91390.38;;;18.04;nan
6395;BME280;3230;42.588;23.358;2023-08-20T03:28:59;91395.22;;;18.11;nan
6395;BME280;3230;42.588;23.358;2023-08-20T03:31:25;91392.09;;;18.17;nan
6395;BME280;3230;42.588;23.358;2023-08-20T03:33:50;91392.44;;;18.16;nan
6395;BME280;3230;42.588;23.358;2023-08-20T03:36:16;91388.97;;;18.24;nan
6395;BME280;3230;42.588;23.358;2023-08-20T03:38:41;91387.13;;;18.33;nan
6395;BME280;3230;42.588;23.358;2023-08-20T03:41:07;91378.84;;;18.35;nan
6395;BME280;3230;42.588;23.358;2023-08-20T03:43:33;91384.94;;;18.44;nan
6395;BME280;3230;42.588;23.358;2023-08-20T03:45:58;91380.41;;;18.45;nan
6395;BME280;3230;42.588;23.358;2023-08-20T03:48:23;91387.59;;;18.53;nan
6395;BME280;3230;42.588;23.358;2023-08-20T03:50:49;91382.25;;;18.62;nan
6395;BME280;3230;42.588;23.358;2023-08-20T03:53:14;91386.03;;;18.69;nan
6395;BME280;3230;42.588;23.358;2023-08-20T03:55:40;91385.22;;;18.78;nan
6395;BME280;3230;42.588;23.358;2023-08-20T03:58:05;91377.53;;;18.85;nan
6395;BME280;3230;42.588;23.358;2023-08-20T04:00:31;91388.50;;;18.92;nan
6395;BME280;3230;42.588;23.358;2023-08-20T04:02:56;91389.88;;;18.98;nan
6395;BME280;3230;42.588;23.358;2023-08-20T04:05:21;91388.31;;;19.06;nan
6395;BME280;3230;42.588;23.358;2023-08-20T04:07:47;91380.34;;;19.06;nan
6395;BME280;3230;42.588;23.358;2023-08-20T04:10:12;91383.16;;;19.10;nan
6395;BME280;3230;42.588;23.358;2023-08-20T04:12:37;91389.84;;;19.16;nan
6395;BME280;3230;42.588;23.358;2023-08-20T04:15:03;91394.66;;;19.23;nan
6395;BME280;3230;42.588;23.358;2023-08-20T04:17:29;91394.81;;;19.26;nan
6395;BME280;3230;42.588;23.358;2023-08-20T04:19:54;91390.91;;;19.24;nan
6395;BME280;3230;42.588;23.358;2023-08-20T04:22:19;91391.25;;;19.22;nan
6395;BME280;3230;42.588;23.358;2023-08-20T04:24:45;91389.66;;;19.30;nan
6395;BME280;3230;42.588;23.358;2023-08-20T04:27:10;91385.66;;;19.45;nan
6395;BME280;3230;42.588;23.358;2023-08-20T04:29:36;91388.19;;;19.50;nan
6395;BME280;3230;42.588;23.358;2023-08-20T04:32:01;91391.69;;;19.63;nan
6395;BME280;3230;42.588;23.358;2023-08-20T04:34:26;91386.84;;;19.65;nan
6395;BME280;3230;42.588;23.358;2023-08-20T04:36:52;91396.00;;;19.76;nan
6395;BME280;3230;42.588;23.358;2023-08-20T04:39:18;91390.66;;;19.94;nan
6395;BME280;3230;42.588;23.358;2023-08-20T04:41:43;91387.16;;;20.02;nan
6395;BME280;3230;42.588;23.358;2023-08-20T04:44:09;91399.44;;;20.16;nan
6395;BME280;3230;42.588;23.358;2023-08-20T04:46:34;91400.16;;;20.46;nan
6395;BME280;3230;42.588;23.358;2023-08-20T04:49:00;91401.78;;;20.81;nan
6395;BME280;3230;42.588;23.358;2023-08-20T04:51:25;91387.84;;;21.54;nan
6395;BME280;3230;42.588;23.358;2023-08-20T04:53:51;91407.22;;;22.01;nan
6395;BME280;3230;42.588;23.358;2023-08-20T04:58:41;91421.88;;;24.57;nan
6395;BME280;3230;42.588;23.358;2023-08-20T05:01:07;91418.63;;;23.97;nan
6395;BME280;3230;42.588;23.358;2023-08-20T05:03:34;91416.00;;;24.16;nan
6395;BME280;3230;42.588;23.358;2023-08-20T05:05:59;91415.03;;;24.76;nan
6395;BME280;3230;42.588;23.358;2023-08-20T05:08:24;91416.09;;;24.91;nan
6395;BME280;3230;42.588;23.358;2023-08-20T05:10:50;91421.00;;;24.69;nan
6395;BME280;3230;42.588;23.358;2023-08-20T05:13:16;91418.34;;;23.70;nan
6395;BME280;3230;42.588;23.358;2023-08-20T05:15:42;91419.38;;;24.13;nan
6395;BME280;3230;42.588;23.358;2023-08-20T05:18:07;91425.88;;;25.22;nan
6395;BME280;3230;42.588;23.358;2023-08-20T05:20:32;91422.47;;;26.95;nan
6395;BME280;3230;42.588;23.358;2023-08-20T05:22:58;91423.38;;;27.41;nan
6395;BME280;3230;42.588;23.358;2023-08-20T05:25:24;91429.03;;;28.07;nan
6395;BME280;3230;42.588;23.358;2023-08-20T05:27:49;91433.88;;;28.99;nan
6395;BME280;3230;42.588;23.358;2023-08-20T05:30:15;91434.19;;;30.40;nan
6395;BME280;3230;42.588;23.358;2023-08-20T05:32:40;91438.59;;;31.44;nan
6395;BME280;3230;42.588;23.358;2023-08-20T05:35:06;91451.88;;;32.02;nan
6395;BME280;3230;42.588;23.358;2023-08-20T05:37:31;91442.59;;;31.96;nan
6395;BME280;3230;42.588;23.358;2023-08-20T05:39:57;91443.38;;;33.29;nan
6395;BME280;3230;42.588;23.358;2023-08-20T05:42:22;91479.16;;;33.89;nan
6395;BME280;3230;42.588;23.358;2023-08-20T05:44:48;91457.44;;;34.91;nan
6395;BME280;3230;42.588;23.358;2023-08-20T05:47:13;91461.56;;;34.76;nan
6395;BME280;3230;42.588;23.358;2023-08-20T05:49:39;91458.75;;;35.27;nan
6395;BME280;3230;42.588;23.358;2023-08-20T05:52:04;91461.75;;;35.93;nan
6395;BME280;3230;42.588;23.358;2023-08-20T05:54:29;91468.25;;;36.32;nan
6395;BME280;3230;42.588;23.358;2023-08-20T05:56:56;91462.59;;;37.22;nan
6395;BME280;3230;42.588;23.358;2023-08-20T05:59:22;91464.81;;;37.57;nan
6395;BME280;3230;42.588;23.358;2023-08-20T06:01:48;91458.34;;;37.21;nan
6395;BME280;3230;42.588;23.358;2023-08-20T06:04:13;91462.94;;;38.74;nan
6395;BME280;3230;42.588;23.358;2023-08-20T06:06:38;91463.38;;;38.72;nan
6395;BME280;3230;42.588;23.358;2023-08-20T06:09:05;91454.25;;;37.13;nan
6395;BME280;3230;42.588;23.358;2023-08-20T06:11:30;91462.97;;;37.67;nan
6395;BME280;3230;42.588;23.358;2023-08-20T06:13:56;91467.00;;;40.06;nan
6395;BME280;3230;42.588;23.358;2023-08-20T06:16:21;91476.44;;;40.68;nan
6395;BME280;3230;42.588;23.358;2023-08-20T06:18:47;91463.38;;;38.85;nan
6395;BME280;3230;42.588;23.358;2023-08-20T06:21:12;91460.66;;;39.42;nan
6395;BME280;3230;42.588;23.358;2023-08-20T06:23:38;91467.13;;;39.13;nan
6395;BME280;3230;42.588;23.358;2023-08-20T06:26:03;91474.94;;;39.37;nan
6395;BME280;3230;42.588;23.358;2023-08-20T06:28:29;91476.34;;;39.42;nan
6395;BME280;3230;42.588;23.358;2023-08-20T06:30:55;91472.41;;;39.43;nan
6395;BME280;3230;42.588;23.358;2023-08-20T06:33:21;91470.13;;;38.93;nan
6395;BME280;3230;42.588;23.358;2023-08-20T06:35:46;91470.06;;;38.71;nan
6395;BME280;3230;42.588;23.358;2023-08-20T06:38:11;91473.25;;;39.17;nan
6395;BME280;3230;42.588;23.358;2023-08-20T06:40:37;91477.59;;;38.67;nan
6395;BME280;3230;42.588;23.358;2023-08-20T06:43:02;91476.97;;;39.24;nan
6395;BME280;3230;42.588;23.358;2023-08-20T06:45:29;91482.97;;;38.96;nan
6395;BME280;3230;42.588;23.358;2023-08-20T06:47:55;91485.88;;;39.94;nan
6395;BME280;3230;42.588;23.358;2023-08-20T06:50:20;91488.88;;;40.50;nan
6395;BME280;3230;42.588;23.358;2023-08-20T06:52:45;91479.75;;;41.13;nan
6395;BME280;3230;42.588;23.358;2023-08-20T06:55:11;91483.78;;;40.30;nan
6395;BME280;3230;42.588;23.358;2023-08-20T06:57:36;91488.34;;;41.43;nan
6395;BME280;3230;42.588;23.358;2023-08-20T07:00:02;91493.81;;;42.50;nan
6395;BME280;3230;42.588;23.358;2023-08-20T07:02:29;91485.97;;;40.95;nan
6395;BME280;3230;42.588;23.358;2023-08-20T07:04:55;91486.09;;;40.32;nan
6395;BME280;3230;42.588;23.358;2023-08-20T07:07:20;91488.94;;;41.93;nan
6395;BME280;3230;42.588;23.358;2023-08-20T07:09:46;91488.19;;;41.65;nan
6395;BME280;3230;42.588;23.358;2023-08-20T07:12:11;91489.00;;;40.78;nan
6395;BME280;3230;42.588;23.358;2023-08-20T07:14:37;91483.19;;;40.04;nan
6395;BME280;3230;42.588;23.358;2023-08-20T07:17:02;91491.69;;;42.02;nan
6395;BME280;3230;42.588;23.358;2023-08-20T07:19:28;91486.47;;;41.12;nan
6395;BME280;3230;42.588;23.358;2023-08-20T07:21:54;91489.53;;;41.14;nan
6395;BME280;3230;42.588;23.358;2023-08-20T07:24:20;91488.28;;;40.96;nan
6395;BME280;3230;42.588;23.358;2023-08-20T07:26:50;91483.44;;;41.37;nan
6395;BME280;3230;42.588;23.358;2023-08-20T07:29:16;91493.75;;;43.03;nan
6395;BME280;3230;42.588;23.358;2023-08-20T07:31:41;91487.41;;;43.36;nan
6395;BME280;3230;42.588;23.358;2023-08-20T07:34:07;91487.84;;;43.19;nan
6395;BME280;3230;42.588;23.358;2023-08-20T07:36:32;91474.66;;;42.65;nan
6395;BME280;3230;42.588;23.358;2023-08-20T07:38:59;91490.16;;;43.36;nan
6395;BME280;3230;42.588;23.358;2023-08-20T07:41:25;91490.97;;;44.50;nan
6395;BME280;3230;42.588;23.358;2023-08-20T07:43:50;91478.50;;;43.80;nan
6395;BME280;3230;42.588;23.358;2023-08-20T07:46:16;91500.28;;;43.78;nan
6395;BME280;3230;42.588;23.358;2023-08-20T07:48:42;91482.84;;;42.84;nan
6395;BME280;3230;42.588;23.358;2023-08-20T07:51:08;91481.00;;;41.02;nan
6395;BME280;3230;42.588;23.358;2023-08-20T07:53:42;91490.44;;;40.51;nan
6395;BME280;3230;42.588;23.358;2023-08-20T07:56:07;91472.25;;;38.89;nan
6395;BME280;3230;42.588;23.358;2023-08-20T07:58:34;91470.34;;;37.40;nan
6395;BME280;3230;42.588;23.358;2023-08-20T08:00:59;91469.28;;;37.34;nan
6395;BME280;3230;42.588;23.358;2023-08-20T08:03:26;91464.94;;;37.66;nan
6395;BME280;3230;42.588;23.358;2023-08-20T08:05:54;91469.31;;;38.45;nan
6395;BME280;3230;42.588;23.358;2023-08-20T08:08:20;91468.75;;;38.63;nan
6395;BME280;3230;42.588;23.358;2023-08-20T08:10:46;91473.13;;;39.78;nan
6395;BME280;3230;42.588;23.358;2023-08-20T08:13:13;91474.63;;;39.35;nan
6395;BME280;3230;42.588;23.358;2023-08-20T08:15:39;91476.72;;;40.20;nan
6395;BME280;3230;42.588;23.358;2023-08-20T08:18:04;91471.59;;;39.20;nan
6395;BME280;3230;42.588;23.358;2023-08-20T08:20:30;91476.34;;;40.81;nan
6395;BME280;3230;42.588;23.358;2023-08-20T08:22:55;91479.25;;;40.86;nan
6395;BME280;3230;42.588;23.358;2023-08-20T08:25:21;91479.78;;;41.78;nan
6395;BME280;3230;42.588;23.358;2023-08-20T08:27:46;91484.16;;;40.51;nan
6395;BME280;3230;42.588;23.358;2023-08-20T08:30:12;91476.56;;;39.47;nan
6395;BME280;3230;42.588;23.358;2023-08-20T08:32:37;91474.97;;;39.81;nan
6395;BME280;3230;42.588;23.358;2023-08-20T08:35:03;91477.94;;;41.28;nan
6395;BME280;3230;42.588;23.358;2023-08-20T08:37:28;91435.09;;;42.11;nan
6395;BME280;3230;42.588;23.358;2023-08-20T08:39:54;91472.81;;;42.72;nan
6395;BME280;3230;42.588;23.358;2023-08-20T08:42:22;91487.88;;;42.86;nan
6395;BME280;3230;42.588;23.358;2023-08-20T08:44:50;91480.56;;;40.63;nan
6395;BME280;3230;42.588;23.358;2023-08-20T08:47:16;91482.06;;;41.79;nan
6395;BME280;3230;42.588;23.358;2023-08-20T08:49:44;91477.94;;;41.37;nan
6395;BME280;3230;42.588;23.358;2023-08-20T08:52:11;91478.34;;;40.99;nan
6395;BME280;3230;42.588;23.358;2023-08-20T08:54:38;91480.41;;;41.63;nan
6395;BME280;3230;42.588;23.358;2023-08-20T08:57:04;91490.41;;;42.31;nan
6395;BME280;3230;42.588;23.358;2023-08-20T08:59:30;91483.84;;;42.62;nan
6395;BME280;3230;42.588;23.358;2023-08-20T09:01:56;91492.25;;;43.65;nan
6395;BME280;3230;42.588;23.358;2023-08-20T09:04:22;91490.41;;;42.13;nan
6395;BME280;3230;42.588;23.358;2023-08-20T09:06:49;91484.97;;;41.29;nan
6395;BME280;3230;42.588;23.358;2023-08-20T09:09:17;91480.97;;;39.10;nan
6395;BME280;3230;42.588;23.358;2023-08-20T09:11:43;91462.59;;;37.22;nan
6395;BME280;3230;42.588;23.358;2023-08-20T09:14:20;91473.06;;;35.31;nan
6395;BME280;3230;42.588;23.358;2023-08-20T09:16:47;91467.13;;;34.45;nan
6395;BME280;3230;42.588;23.358;2023-08-20T09:19:12;91466.34;;;33.90;nan
6395;BME280;3230;42.588;23.358;2023-08-20T09:21:37;91461.31;;;33.23;nan
6395;BME280;3230;42.588;23.358;2023-08-20T09:24:03;91468.19;;;32.51;nan
6395;BME280;3230;42.588;23.358;2023-08-20T09:26:29;91467.88;;;31.78;nan
6395;BME280;3230;42.588;23.358;2023-08-20T09:28:55;91466.16;;;31.17;nan
6395;BME280;3230;42.588;23.358;2023-08-20T09:31:37;91464.25;;;31.00;nan
6395;BME280;3230;42.588;23.358;2023-08-20T09:34:03;91467.38;;;30.80;nan
6395;BME280;3230;42.588;23.358;2023-08-20T09:36:33;91463.47;;;30.95;nan
6395;BME280;3230;42.588;23.358;2023-08-20T09:38:59;91468.19;;;30.70;nan
6395;BME280;3230;42.588;23.358;2023-08-20T09:41:25;91465.09;;;30.57;nan
6395;BME280;3230;42.588;23.358;2023-08-20T09:43:56;91463.91;;;30.40;nan
6395;BME280;3230;42.588;23.358;2023-08-20T09:46:24;91465.09;;;30.17;nan
6395;BME280;3230;42.588;23.358;2023-08-20T09:48:51;91465.47;;;30.37;nan
6395;BME280;3230;42.588;23.358;2023-08-20T09:51:19;91455.06;;;30.50;nan
6395;BME280;3230;42.588;23.358;2023-08-20T09:53:56;91455.03;;;30.10;nan
6395;BME280;3230;42.588;23.358;2023-08-20T09:56:30;91451.16;;;29.97;nan
6395;BME280;3230;42.588;23.358;2023-08-20T09:59:00;91457.34;;;30.19;nan
6395;BME280;3230;42.588;23.358;2023-08-20T10:01:26;91441.50;;;29.99;nan
6395;BME280;3230;42.588;23.358;2023-08-20T10:03:53;91437.28;;;30.24;nan
6395;BME280;3230;42.588;23.358;2023-08-20T10:06:18;91458.13;;;30.49;nan
6395;BME280;3230;42.588;23.358;2023-08-20T10:08:46;91466.63;;;30.40;nan
6395;BME280;3230;42.588;23.358;2023-08-20T10:11:12;91457.34;;;30.23;nan
6395;BME280;3230;42.588;23.358;2023-08-20T10:13:38;91453.13;;;30.04;nan
6395;BME280;3230;42.588;23.358;2023-08-20T10:16:04;91459.28;;;30.26;nan
6395;BME280;3230;42.588;23.358;2023-08-20T10:18:29;91457.28;;;29.79;nan
6395;BME280;3230;42.588;23.358;2023-08-20T10:20:58;91454.19;;;29.77;nan
6395;BME280;3230;42.588;23.358;2023-08-20T10:23:24;91456.97;;;30.13;nan
6395;BME280;3230;42.588;23.358;2023-08-20T10:25:52;91451.94;;;30.23;nan
6395;BME280;3230;42.588;23.358;2023-08-20T10:28:27;91451.19;;;30.15;nan
6395;BME280;3230;42.588;23.358;2023-08-20T10:31:25;91455.81;;;30.07;nan
6395;BME280;3230;42.588;23.358;2023-08-20T10:33:54;91448.47;;;30.11;nan
6395;BME280;3230;42.588;23.358;2023-08-20T10:36:22;91450.41;;;30.04;nan
6395;BME280;3230;42.588;23.358;2023-08-20T10:38:51;91452.72;;;30.09;nan
6395;BME280;3230;42.588;23.358;2023-08-20T10:41:25;91445.38;;;30.20;nan
6395;BME280;3230;42.588;23.358;2023-08-20T10:43:50;91435.38;;;30.28;nan
6395;BME280;3230;42.588;23.358;2023-08-20T10:46:22;91443.84;;;30.23;nan
6395;BME280;3230;42.588;23.358;2023-08-20T10:51:33;91432.66;;;30.31;nan
6395;BME280;3230;42.588;23.358;2023-08-20T10:54:04;91438.06;;;30.39;nan
6395;BME280;3230;42.588;23.358;2023-08-20T10:56:43;91442.69;;;30.38;nan
6395;BME280;3230;42.588;23.358;2023-08-20T10:59:29;91441.53;;;30.25;nan
6395;BME280;3230;42.588;23.358;2023-08-20T11:01:57;91436.91;;;30.25;nan
6395;BME280;3230;42.588;23.358;2023-08-20T11:04:31;91437.66;;;30.19;nan
6395;BME280;3230;42.588;23.358;2023-08-20T11:07:06;91433.03;;;30.41;nan
6395;BME280;3230;42.588;23.358;2023-08-20T11:09:31;91423.75;;;30.31;nan
6395;BME280;3230;42.588;23.358;2023-08-20T11:11:58;91424.16;;;30.37;nan
6395;BME280;3230;42.588;23.358;2023-08-20T11:14:24;91425.31;;;30.14;nan
6395;BME280;3230;42.588;23.358;2023-08-20T11:16:49;91419.91;;;30.25;nan
6395;BME280;3230;42.588;23.358;2023-08-20T11:19:22;91418.75;;;30.37;nan
6395;BME280;3230;42.588;23.358;2023-08-20T11:21:48;91424.56;;;30.28;nan
6395;BME280;3230;42.588;23.358;2023-08-20T11:24:14;91423.75;;;30.13;nan
6395;BME280;3230;42.588;23.358;2023-08-20T11:26:40;91417.19;;;29.92;nan
6395;BME280;3230;42.588;23.358;2023-08-20T11:29:07;91414.91;;;30.05;nan
6395;BME280;3230;42.588;23.358;2023-08-20T11:31:33;91421.44;;;30.22;nan
6395;BME280;3230;42.588;23.358;2023-08-20T11:33:58;91413.34;;;30.37;nan
6395;BME280;3230;42.588;23.358;2023-08-20T11:36:24;91407.94;;;30.26;nan
6395;BME280;3230;42.588;23.358;2023-08-20T11:38:51;91414.09;;;30.37;nan
6395;BME280;3230;42.588;23.358;2023-08-20T11:41:18;91411.00;;;30.57;nan
6395;BME280;3230;42.588;23.358;2023-08-20T11:43:43;91414.50;;;30.25;nan
6395;BME280;3230;42.588;23.358;2023-08-20T11:46:13;91412.53;;;30.47;nan
6395;BME280;3230;42.588;23.358;2023-08-20T11:49:01;91408.31;;;30.50;nan
6395;BME280;3230;42.588;23.358;2023-08-20T11:51:28;91406.00;;;30.55;nan
6395;BME280;3230;42.588;23.358;2023-08-20T11:53:54;91410.25;;;30.56;nan
6395;BME280;3230;42.588;23.358;2023-08-20T11:56:19;91410.63;;;30.37;nan
6395;BME280;3230;42.588;23.358;2023-08-20T11:58:51;91408.69;;;30.41;nan
6395;BME280;3230;42.588;23.358;2023-08-20T12:01:20;91414.88;;;30.38;nan
6395;BME280;3230;42.588;23.358;2023-08-20T12:03:45;91410.25;;;30.09;nan
6395;BME280;3230;42.588;23.358;2023-08-20T12:06:21;91411.78;;;29.92;nan
6395;BME280;3230;42.588;23.358;2023-08-20T12:08:48;91395.59;;;30.07;nan
6395;BME280;3230;42.588;23.358;2023-08-20T12:11:14;91402.94;;;30.17;nan
6395;BME280;3230;42.588;23.358;2023-08-20T12:13:40;91406.41;;;30.14;nan
6395;BME280;3230;42.588;23.358;2023-08-20T12:16:06;91400.22;;;30.24;nan
6395;BME280;3230;42.588;23.358;2023-08-20T12:18:31;91393.28;;;30.16;nan
6395;BME280;3230;42.588;23.358;2023-08-20T12:20:57;91393.69;;;30.14;nan
6395;BME280;3230;42.588;23.358;2023-08-20T12:23:22;91398.28;;;30.21;nan
6395;BME280;3230;42.588;23.358;2023-08-20T12:25:52;91389.78;;;30.19;nan
6395;BME280;3230;42.588;23.358;2023-08-20T12:28:18;91387.47;;;30.14;nan
6395;BME280;3230;42.588;23.358;2023-08-20T12:30:43;91385.56;;;30.22;nan
6395;BME280;3230;42.588;23.358;2023-08-20T12:33:09;91383.22;;;30.38;nan
6395;BME280;3230;42.588;23.358;2023-08-20T12:35:36;91383.63;;;30.51;nan
6395;BME280;3230;42.588;23.358;2023-08-20T12:38:01;91390.16;;;30.61;nan
6395;BME280;3230;42.588;23.358;2023-08-20T12:40:28;91382.47;;;30.52;nan
6395;BME280;3230;42.588;23.358;2023-08-20T12:42:53;91383.59;;;30.47;nan
6395;BME280;3230;42.588;23.358;2023-08-20T12:45:19;91388.63;;;30.42;nan
6395;BME280;3230;42.588;23.358;2023-08-20T12:47:44;91377.81;;;30.38;nan
6395;BME280;3230;42.588;23.358;2023-08-20T12:50:09;91389.41;;;30.39;nan
6395;BME280;3230;42.588;23.358;2023-08-20T12:52:36;91384.34;;;30.48;nan
6395;BME280;3230;42.588;23.358;2023-08-20T12:55:02;91384.75;;;30.36;nan
6395;BME280;3230;42.588;23.358;2023-08-20T12:57:28;91379.38;;;30.50;nan
6395;BME280;3230;42.588;23.358;2023-08-20T12:59:53;91377.81;;;30.56;nan
6395;BME280;3230;42.588;23.358;2023-08-20T13:02:19;91379.75;;;30.52;nan
6395;BME280;3230;42.588;23.358;2023-08-20T13:04:46;91375.47;;;30.47;nan
6395;BME280;3230;42.588;23.358;2023-08-20T13:07:12;91371.25;;;30.28;nan
6395;BME280;3230;42.588;23.358;2023-08-20T13:09:38;91383.22;;;30.31;nan
6395;BME280;3230;42.588;23.358;2023-08-20T13:12:05;91382.44;;;30.38;nan
6395;BME280;3230;42.588;23.358;2023-08-20T13:14:34;91375.88;;;30.39;nan
6395;BME280;3230;42.588;23.358;2023-08-20T13:17:00;91368.13;;;30.70;nan
6395;BME280;3230;42.588;23.358;2023-08-20T13:19:26;91374.66;;;30.76;nan
6395;BME280;3230;42.588;23.358;2023-08-20T13:21:51;91364.66;;;30.66;nan
6395;BME280;3230;42.588;23.358;2023-08-20T13:24:17;91369.28;;;30.58;nan
6395;BME280;3230;42.588;23.358;2023-08-20T13:26:42;91364.69;;;30.37;nan
6395;BME280;3230;42.588;23.358;2023-08-20T13:29:07;91368.16;;;30.41;nan
6395;BME280;3230;42.588;23.358;2023-08-20T13:31:33;91367.41;;;30.22;nan
6395;BME280;3230;42.588;23.358;2023-08-20T13:34:00;91370.91;;;30.12;nan
6395;BME280;3230;42.588;23.358;2023-08-20T13:36:26;91362.41;;;30.17;nan
6395;BME280;3230;42.588;23.358;2023-08-20T13:38:52;91370.13;;;30.19;nan
6395;BME280;3230;42.588;23.358;2023-08-20T13:41:17;91368.16;;;30.34;nan